KSJN/SJN METAR and TAF weather

Enter ICAO airport designator
Station Type Date Time Source
KSJN METAR 2020/12/06 01:54 UTC NOAA

KSJN 060154Z AUTO 20004KT 10SM CLR 01/M11 A3035 RMK AO2 SLP294 T00061111


Station Type Date Time Source
KSJN Decoded METAR 2020/12/06 01:54 UTC NOAA

ST JOHNS INDUSTRIAL AIRPRK, AZ, United States (KSJN) 34-31N 109-23W 1745M
Dec 05, 2020 - 08:54 PM EST / 2020.12.06 0154 UTC
Wind: from the SSW (200 degrees) at 5 MPH (4 KT):0
Visibility: 10 mile(s):0
Sky conditions: clear
Temperature: 33.1 F (0.6 C)
Windchill: 28 F (-2 C):1
Dew Point: 12.0 F (-11.1 C)
Relative Humidity: 41%
Pressure (altimeter): 30.35 in. Hg (1027 hPa)
ob: KSJN 060154Z AUTO 20004KT 10SM CLR 01/M11 A3035 RMK AO2 SLP294 T00061111
cycle: 2

Station Type Date Time Source
KSJN TAF UTC NOAA

Error!

Example: see airport list